createdAt,value
2022-08-26T00:00:48.783Z,21.00
2022-08-26T00:03:17.045Z,20.53
2022-08-26T00:05:45.742Z,21.06
2022-08-26T00:08:14.837Z,20.91
2022-08-26T00:10:42.483Z,20.94
2022-08-26T00:13:10.844Z,20.96
2022-08-26T00:15:39.212Z,20.93
2022-08-26T00:18:21.974Z,20.19
2022-08-26T00:20:49.914Z,20.31
2022-08-26T00:23:16.502Z,20.57
2022-08-26T00:25:43.278Z,21.00
2022-08-26T00:28:12.471Z,20.50
2022-08-26T00:30:41.458Z,20.84
2022-08-26T00:33:08.891Z,20.59
2022-08-26T00:35:36.208Z,20.83
2022-08-26T00:38:03.579Z,20.38
2022-08-26T00:40:37.526Z,20.48
2022-08-26T00:43:09.326Z,20.77
2022-08-26T00:45:48.214Z,20.47
2022-08-26T00:48:18.264Z,20.01
2022-08-26T00:50:57.858Z,20.56
2022-08-26T00:53:30.468Z,20.47
2022-08-26T00:56:06.025Z,20.73
2022-08-26T00:58:33.595Z,20.67
2022-08-26T01:01:00.889Z,20.64
2022-08-26T01:03:30.802Z,20.57
2022-08-26T01:05:59.056Z,20.58
2022-08-26T01:08:26.226Z,20.38
2022-08-26T01:10:57.442Z,20.47
2022-08-26T01:13:25.051Z,20.09
2022-08-26T01:15:55.021Z,20.32
2022-08-26T01:18:22.444Z,19.87
2022-08-26T01:20:57.694Z,20.21
2022-08-26T01:23:28.733Z,20.16
2022-08-26T01:26:07.509Z,20.48
2022-08-26T01:28:50.613Z,20.57
2022-08-26T01:31:22.399Z,20.31
2022-08-26T01:34:12.154Z,20.56
2022-08-26T01:36:39.868Z,20.41
2022-08-26T01:39:08.055Z,20.19
2022-08-26T01:41:36.004Z,19.73
2022-08-26T01:44:05.685Z,20.28
2022-08-26T01:46:33.069Z,20.42
2022-08-26T01:49:02.904Z,20.51
2022-08-26T01:51:35.939Z,20.15
2022-08-26T01:54:06.038Z,20.54
2022-08-26T01:56:36.696Z,20.39
2022-08-26T01:59:08.525Z,20.34
2022-08-26T02:01:37.196Z,20.13
2022-08-26T02:04:25.874Z,20.51
2022-08-26T02:06:53.568Z,20.28
2022-08-26T02:09:21.388Z,20.38
2022-08-26T02:11:48.603Z,20.03
2022-08-26T02:14:26.744Z,20.30
2022-08-26T02:16:54.756Z,20.25
2022-08-26T02:19:31.763Z,20.32
2022-08-26T02:22:02.684Z,19.81
2022-08-26T02:24:47.015Z,19.97
2022-08-26T02:27:14.822Z,19.35
2022-08-26T02:29:45.403Z,19.83
2022-08-26T02:32:11.921Z,19.42
2022-08-26T02:34:40.639Z,19.72
2022-08-26T02:37:10.311Z,19.70
2022-08-26T02:39:39.780Z,19.80
2022-08-26T02:42:06.724Z,19.86
2022-08-26T02:44:33.599Z,19.75
2022-08-26T02:47:00.459Z,20.19
2022-08-26T02:49:27.702Z,20.02
2022-08-26T02:51:54.394Z,19.63
2022-08-26T02:54:21.610Z,19.81
2022-08-26T02:56:48.916Z,19.43
2022-08-26T02:59:15.445Z,18.93
2022-08-26T03:01:42.350Z,19.60
2022-08-26T03:04:10.972Z,19.57
2022-08-26T03:06:38.851Z,19.77
2022-08-26T03:09:07.795Z,19.81
2022-08-26T03:11:34.350Z,19.33
2022-08-26T03:14:03.372Z,19.62
2022-08-26T03:16:35.338Z,19.44
2022-08-26T03:19:04.077Z,19.77
2022-08-26T03:21:31.051Z,19.78
2022-08-26T03:23:58.746Z,19.57
2022-08-26T03:26:26.554Z,19.73
2022-08-26T03:28:54.088Z,19.17
2022-08-26T03:31:20.718Z,19.45
2022-08-26T03:33:51.150Z,19.62
2022-08-26T03:36:19.062Z,19.79
2022-08-26T03:38:45.929Z,19.75
2022-08-26T03:41:12.445Z,19.08
2022-08-26T03:43:39.660Z,18.90
2022-08-26T03:46:12.103Z,18.94
2022-08-26T03:48:39.644Z,19.35
2022-08-26T03:51:13.943Z,19.80
2022-08-26T03:53:45.808Z,19.78
2022-08-26T03:56:12.670Z,20.04
2022-08-26T03:58:39.596Z,19.54
2022-08-26T04:01:09.499Z,19.43
2022-08-26T04:03:35.946Z,19.82
2022-08-26T04:06:02.450Z,19.43
2022-08-26T04:08:28.942Z,19.62
2022-08-26T04:10:55.459Z,19.24
2022-08-26T04:13:21.996Z,19.45
2022-08-26T04:15:49.077Z,19.52
2022-08-26T04:18:16.071Z,18.89
2022-08-26T04:20:45.479Z,19.00
2022-08-26T04:23:11.906Z,19.61
2022-08-26T04:25:38.333Z,18.67
2022-08-26T04:28:07.042Z,19.35
2022-08-26T04:30:37.565Z,19.12
2022-08-26T04:33:04.348Z,19.30
2022-08-26T04:35:39.646Z,19.42
2022-08-26T04:38:10.348Z,19.45
2022-08-26T04:40:37.070Z,19.20
2022-08-26T04:43:05.531Z,19.30
2022-08-26T04:45:32.019Z,18.75
2022-08-26T04:47:58.474Z,19.24
2022-08-26T04:50:25.278Z,19.20
2022-08-26T04:52:51.725Z,19.33
2022-08-26T04:55:18.522Z,18.99
2022-08-26T04:57:46.343Z,19.48
2022-08-26T05:00:13.165Z,18.91
2022-08-26T05:02:40.172Z,19.53
2022-08-26T05:05:07.639Z,19.57
2022-08-26T05:07:35.149Z,19.18
2022-08-26T05:10:03.401Z,19.64
2022-08-26T05:12:30.488Z,19.31
2022-08-26T05:14:57.168Z,19.61
2022-08-26T05:17:23.977Z,19.00
2022-08-26T05:19:50.477Z,19.06
2022-08-26T05:22:17.391Z,18.76
2022-08-26T05:24:44.938Z,19.12
2022-08-26T05:27:12.524Z,19.02
2022-08-26T05:29:40.226Z,19.68
2022-08-26T05:32:07.066Z,19.34
2022-08-26T05:34:33.745Z,19.67
2022-08-26T05:37:00.203Z,19.26
2022-08-26T05:39:26.679Z,19.50
2022-08-26T05:41:53.138Z,19.57
2022-08-26T05:44:19.622Z,19.64
2022-08-26T05:46:46.310Z,20.38
2022-08-26T05:49:14.382Z,20.46
2022-08-26T05:51:44.468Z,20.10
2022-08-26T05:54:10.954Z,20.33
2022-08-26T05:56:38.648Z,20.27
2022-08-26T05:59:06.023Z,20.55
2022-08-26T06:01:41.207Z,20.44
2022-08-26T06:04:07.823Z,20.64
2022-08-26T06:06:36.734Z,20.02
2022-08-26T06:09:05.803Z,20.85
2022-08-26T06:11:32.747Z,20.35
2022-08-26T06:14:03.958Z,20.19
2022-08-26T06:16:32.237Z,20.48
2022-08-26T06:18:58.828Z,20.50
2022-08-26T06:21:32.620Z,20.14
2022-08-26T06:24:02.314Z,20.30
2022-08-26T06:26:29.581Z,19.93
2022-08-26T06:28:56.408Z,20.12
2022-08-26T06:31:23.811Z,19.93
2022-08-26T06:33:50.988Z,19.95
2022-08-26T06:36:23.428Z,19.33
2022-08-26T06:38:52.000Z,19.71
2022-08-26T06:41:20.955Z,19.87
2022-08-26T06:43:49.145Z,19.97
2022-08-26T06:46:19.202Z,19.86
2022-08-26T06:48:46.418Z,20.15
2022-08-26T06:51:16.687Z,20.15
2022-08-26T06:53:45.301Z,19.78
2022-08-26T06:56:12.032Z,20.00
2022-08-26T06:58:40.589Z,20.30
2022-08-26T07:01:25.730Z,19.88
2022-08-26T07:03:54.610Z,20.51
2022-08-26T07:06:24.195Z,20.08
2022-08-26T07:08:54.011Z,19.82
2022-08-26T07:11:21.069Z,20.37
2022-08-26T07:13:47.959Z,20.55
2022-08-26T07:16:19.703Z,20.58
2022-08-26T07:18:47.359Z,20.39
2022-08-26T07:21:16.258Z,20.43
2022-08-26T07:23:44.862Z,20.35
2022-08-26T07:26:15.226Z,20.50
2022-08-26T07:28:43.052Z,20.48
2022-08-26T07:31:12.655Z,20.76
2022-08-26T07:33:39.514Z,20.82
2022-08-26T07:36:08.950Z,20.82
2022-08-26T07:38:37.245Z,20.92
2022-08-26T07:41:04.006Z,21.17
2022-08-26T07:43:31.050Z,20.85
2022-08-26T07:45:58.136Z,20.96
2022-08-26T07:48:24.857Z,21.66
2022-08-26T07:50:51.417Z,21.05
2022-08-26T07:53:21.245Z,21.67
2022-08-26T07:55:49.122Z,21.51
2022-08-26T07:58:17.203Z,21.62
2022-08-26T08:00:44.621Z,21.09
2022-08-26T08:03:11.345Z,21.04
2022-08-26T08:05:38.462Z,20.60
2022-08-26T08:08:27.326Z,21.16
2022-08-26T08:10:56.480Z,20.24
2022-08-26T08:13:23.628Z,20.65
2022-08-26T08:15:50.414Z,20.52
2022-08-26T08:18:18.205Z,20.20
2022-08-26T08:20:54.707Z,20.25
2022-08-26T08:23:32.428Z,20.73
2022-08-26T08:26:06.670Z,20.34
2022-08-26T08:28:35.867Z,21.21
2022-08-26T08:31:02.728Z,20.76
2022-08-26T08:33:29.890Z,21.03
2022-08-26T08:35:57.779Z,21.21
2022-08-26T08:38:24.697Z,21.31
2022-08-26T08:40:51.446Z,21.53
2022-08-26T08:43:38.038Z,21.05
2022-08-26T08:46:10.170Z,21.00
2022-08-26T08:48:43.458Z,20.53
2022-08-26T08:51:33.022Z,21.00
2022-08-26T08:54:00.932Z,20.83
2022-08-26T08:56:33.613Z,20.37
2022-08-26T08:59:22.539Z,20.72
2022-08-26T09:01:52.401Z,20.28
2022-08-26T09:04:29.316Z,20.22
2022-08-26T09:09:36.316Z,20.08
2022-08-26T09:12:04.082Z,20.02
2022-08-26T09:14:31.731Z,19.78
2022-08-26T09:17:21.486Z,20.31
2022-08-26T09:19:54.285Z,20.71
2022-08-26T09:22:32.488Z,20.89
2022-08-26T09:25:00.996Z,20.45
2022-08-26T09:27:46.967Z,21.00
2022-08-26T09:30:30.895Z,21.53
2022-08-26T09:33:11.154Z,21.52
2022-08-26T09:35:43.571Z,21.55
2022-08-26T09:38:26.887Z,21.86
2022-08-26T09:41:00.495Z,21.75
2022-08-26T09:43:27.668Z,21.89
2022-08-26T09:46:10.272Z,21.57
2022-08-26T09:48:40.528Z,21.43
2022-08-26T09:51:28.072Z,21.57
2022-08-26T09:54:00.093Z,21.56
2022-08-26T09:56:29.915Z,21.43
2022-08-26T09:58:57.091Z,21.76
2022-08-26T10:01:23.570Z,21.89
2022-08-26T10:03:50.848Z,21.00
2022-08-26T10:06:17.604Z,21.48
2022-08-26T10:08:52.274Z,21.46
2022-08-26T10:11:24.499Z,21.55
2022-08-26T10:13:59.430Z,21.58
2022-08-26T10:16:34.339Z,21.67
2022-08-26T10:19:11.984Z,22.15
2022-08-26T10:21:49.450Z,21.70
2022-08-26T10:24:26.034Z,22.14
2022-08-26T10:27:04.160Z,22.39
2022-08-26T10:29:43.168Z,22.38
2022-08-26T10:32:26.991Z,22.65
2022-08-26T10:34:54.476Z,21.51
2022-08-26T10:37:23.967Z,22.27
2022-08-26T10:40:02.551Z,22.03
2022-08-26T10:42:50.672Z,21.72
2022-08-26T10:45:21.255Z,22.22
2022-08-26T10:48:00.374Z,21.68
2022-08-26T10:50:32.862Z,21.85
2022-08-26T10:53:05.385Z,21.75
2022-08-26T10:55:48.407Z,21.45
2022-08-26T10:58:26.058Z,21.28
2022-08-26T11:00:59.900Z,21.81
2022-08-26T11:03:29.484Z,21.62
2022-08-26T11:06:19.284Z,22.07
2022-08-26T11:08:47.796Z,21.74
2022-08-26T11:11:40.081Z,21.76
2022-08-26T11:14:11.405Z,21.65
2022-08-26T11:16:43.962Z,21.58
2022-08-26T11:19:45.628Z,21.60
2022-08-26T11:22:34.136Z,21.50
2022-08-26T11:25:02.965Z,21.05
2022-08-26T11:27:35.322Z,21.39
2022-08-26T11:30:01.717Z,21.36
2022-08-26T11:32:34.110Z,21.45
2022-08-26T11:35:09.556Z,21.07
2022-08-26T11:37:42.479Z,21.02
2022-08-26T11:40:14.433Z,21.70
2022-08-26T11:42:40.993Z,21.38
2022-08-26T11:45:22.653Z,21.87
2022-08-26T11:47:50.178Z,21.39
2022-08-26T11:50:24.982Z,21.95
2022-08-26T11:52:57.002Z,21.83
2022-08-26T11:55:24.243Z,21.19
2022-08-26T11:57:55.751Z,21.73
2022-08-26T12:00:26.151Z,21.98
2022-08-26T12:02:53.486Z,21.84
2022-08-26T12:05:29.576Z,21.89
2022-08-26T12:08:01.867Z,21.55
2022-08-26T12:10:32.090Z,21.46
2022-08-26T12:13:00.224Z,21.06
2022-08-26T12:15:29.772Z,21.45
2022-08-26T12:17:57.229Z,21.64
2022-08-26T12:20:35.224Z,21.79
2022-08-26T12:23:01.884Z,21.74
2022-08-26T12:25:28.745Z,21.07
2022-08-26T12:28:05.520Z,21.75
2022-08-26T12:30:32.227Z,21.87
2022-08-26T12:33:22.665Z,21.79
2022-08-26T12:35:54.341Z,21.76
2022-08-26T12:38:22.312Z,21.92
2022-08-26T12:40:49.263Z,21.53
2022-08-26T12:43:36.707Z,22.26
2022-08-26T12:46:03.521Z,22.16
2022-08-26T12:48:36.373Z,22.03
2022-08-26T12:51:05.880Z,21.76
2022-08-26T12:53:34.827Z,21.43
2022-08-26T12:56:04.398Z,21.62
2022-08-26T12:58:36.530Z,21.79
2022-08-26T13:01:05.973Z,22.35
2022-08-26T13:03:35.180Z,22.49
2022-08-26T13:06:23.267Z,22.37
2022-08-26T13:08:52.211Z,21.98
2022-08-26T13:11:23.217Z,21.57
2022-08-26T13:14:02.292Z,21.92
2022-08-26T13:16:34.886Z,21.65
2022-08-26T13:19:05.984Z,21.76
2022-08-26T13:21:51.327Z,21.66
2022-08-26T13:24:21.657Z,21.87
2022-08-26T13:26:49.965Z,21.49
2022-08-26T13:29:17.635Z,21.52
2022-08-26T13:31:45.208Z,21.50
2022-08-26T13:34:15.049Z,21.37
2022-08-26T13:36:41.742Z,21.52
2022-08-26T13:39:08.477Z,21.09
2022-08-26T13:41:34.937Z,21.32
2022-08-26T13:44:01.515Z,21.04
2022-08-26T13:46:28.910Z,21.86
2022-08-26T13:48:59.329Z,21.62
2022-08-26T13:51:27.082Z,21.74
2022-08-26T13:53:54.310Z,21.82
2022-08-26T13:56:21.807Z,21.93
2022-08-26T13:58:49.552Z,21.58
2022-08-26T14:01:18.317Z,21.99
2022-08-26T14:03:45.151Z,22.05
2022-08-26T14:06:12.801Z,22.11
2022-08-26T14:08:40.686Z,21.96
2022-08-26T14:11:07.684Z,21.94
2022-08-26T14:13:34.658Z,22.03
2022-08-26T14:16:02.797Z,22.02
2022-08-26T14:18:32.576Z,21.33
2022-08-26T14:20:59.509Z,21.93
2022-08-26T14:23:26.764Z,21.56
2022-08-26T14:25:54.080Z,21.85
2022-08-26T14:28:20.623Z,21.87
2022-08-26T14:30:57.069Z,21.56
2022-08-26T14:33:30.731Z,22.00
2022-08-26T14:35:57.645Z,21.97
2022-08-26T14:38:24.182Z,21.62
2022-08-26T14:40:50.711Z,21.55
2022-08-26T14:43:17.305Z,21.54
2022-08-26T14:45:44.459Z,21.58
2022-08-26T14:48:11.067Z,21.59
2022-08-26T14:50:37.657Z,21.24
2022-08-26T14:53:04.428Z,21.47
2022-08-26T14:55:34.161Z,21.70
2022-08-26T14:58:01.004Z,21.45
2022-08-26T15:00:27.625Z,21.78
2022-08-26T15:02:54.381Z,21.63
2022-08-26T15:05:21.239Z,22.07
2022-08-26T15:07:48.143Z,21.53
2022-08-26T15:10:16.736Z,21.57
2022-08-26T15:12:44.912Z,22.06
2022-08-26T15:15:13.706Z,21.53
2022-08-26T15:17:40.262Z,21.46
2022-08-26T15:20:07.780Z,21.19
2022-08-26T15:22:34.575Z,21.49
2022-08-26T15:25:01.082Z,21.48
2022-08-26T15:27:28.140Z,20.83
2022-08-26T15:29:54.726Z,20.43
2022-08-26T15:32:21.197Z,21.49
2022-08-26T15:34:47.985Z,21.85
2022-08-26T15:37:14.495Z,21.43
2022-08-26T15:39:40.986Z,21.22
2022-08-26T15:42:07.681Z,21.26
2022-08-26T15:44:34.367Z,21.31
2022-08-26T15:47:00.911Z,21.51
2022-08-26T15:49:27.651Z,21.10
2022-08-26T15:51:54.148Z,20.95
2022-08-26T15:54:23.253Z,21.38
2022-08-26T15:56:50.446Z,21.27
2022-08-26T15:59:18.285Z,21.43
2022-08-26T16:01:45.217Z,21.57
2022-08-26T16:04:11.874Z,21.20
2022-08-26T16:06:40.938Z,21.25
2022-08-26T16:09:08.588Z,20.94
2022-08-26T16:11:36.137Z,21.30
2022-08-26T16:14:03.851Z,21.48
2022-08-26T16:16:30.719Z,21.30
2022-08-26T16:18:57.340Z,20.97
2022-08-26T16:21:26.528Z,21.03
2022-08-26T16:23:53.014Z,21.16
2022-08-26T16:26:23.355Z,21.05
2022-08-26T16:28:49.829Z,21.43
2022-08-26T16:31:17.259Z,21.61
2022-08-26T16:33:44.068Z,21.51
2022-08-26T16:36:11.339Z,21.40
2022-08-26T16:38:38.837Z,21.52
2022-08-26T16:41:06.556Z,21.40
2022-08-26T16:43:33.358Z,20.84
2022-08-26T16:45:59.898Z,21.12
2022-08-26T16:48:26.510Z,21.06
2022-08-26T16:50:52.992Z,20.96
2022-08-26T16:53:19.479Z,20.95
2022-08-26T16:55:50.542Z,20.89
2022-08-26T16:58:18.115Z,20.87
2022-08-26T17:00:44.677Z,21.20
2022-08-26T17:03:11.574Z,21.14
2022-08-26T17:05:38.238Z,20.74
2022-08-26T17:08:05.562Z,20.83
2022-08-26T17:10:32.779Z,20.94
2022-08-26T17:12:59.537Z,20.74
2022-08-26T17:15:29.196Z,20.71
2022-08-26T17:17:56.489Z,20.68
2022-08-26T17:20:24.832Z,20.94
2022-08-26T17:22:53.546Z,21.10
2022-08-26T17:25:21.945Z,20.55
2022-08-26T17:27:49.110Z,20.72
2022-08-26T17:30:16.856Z,20.89
2022-08-26T17:32:44.389Z,20.79
2022-08-26T17:35:11.669Z,20.85
2022-08-26T17:37:40.208Z,20.40
2022-08-26T17:40:10.954Z,20.82
2022-08-26T17:42:39.273Z,20.59
2022-08-26T17:45:06.806Z,20.34
2022-08-26T17:47:34.465Z,20.32
2022-08-26T17:50:01.204Z,20.83
2022-08-26T17:52:28.916Z,20.73
2022-08-26T17:54:55.501Z,20.33
2022-08-26T17:57:23.008Z,20.77
2022-08-26T17:59:50.140Z,20.13
2022-08-26T18:02:20.236Z,20.10
2022-08-26T18:04:46.784Z,20.18
2022-08-26T18:07:13.272Z,20.41
2022-08-26T18:09:39.768Z,20.48
2022-08-26T18:12:06.649Z,20.46
2022-08-26T18:14:34.050Z,19.90
2022-08-26T18:17:00.700Z,20.12
2022-08-26T18:19:27.422Z,20.58
2022-08-26T18:21:54.049Z,19.77
2022-08-26T18:24:20.508Z,20.35
2022-08-26T18:26:47.023Z,19.83
2022-08-26T18:29:13.595Z,19.72
2022-08-26T18:31:40.125Z,20.05
2022-08-26T18:34:06.626Z,19.95
2022-08-26T18:36:36.527Z,19.94
2022-08-26T18:39:05.139Z,19.72
2022-08-26T18:41:33.528Z,20.15
2022-08-26T18:44:00.219Z,20.00
2022-08-26T18:46:27.769Z,20.10
2022-08-26T18:48:56.293Z,19.74
2022-08-26T18:51:26.592Z,19.31
2022-08-26T18:53:53.571Z,19.42
2022-08-26T18:56:20.140Z,19.92
2022-08-26T18:58:47.472Z,19.79
2022-08-26T19:01:15.277Z,19.94
2022-08-26T19:03:42.063Z,19.81
2022-08-26T19:06:13.285Z,19.47
2022-08-26T19:08:42.651Z,19.27
2022-08-26T19:11:12.167Z,18.86
2022-08-26T19:13:44.179Z,19.28
2022-08-26T19:16:24.962Z,19.45
2022-08-26T19:18:52.585Z,19.33
2022-08-26T19:21:29.819Z,18.84
2022-08-26T19:23:58.680Z,19.23
2022-08-26T19:26:26.143Z,19.17
2022-08-26T19:28:52.753Z,18.79
2022-08-26T19:31:19.436Z,18.81
2022-08-26T19:33:46.033Z,18.66
2022-08-26T19:36:16.045Z,18.90
2022-08-26T19:38:42.687Z,18.58
2022-08-26T19:41:18.703Z,18.61
2022-08-26T19:43:46.129Z,18.72
2022-08-26T19:46:21.641Z,18.97
2022-08-26T19:48:51.813Z,18.66
2022-08-26T19:51:25.852Z,18.56
2022-08-26T19:53:54.364Z,18.82
2022-08-26T19:56:22.059Z,18.36
2022-08-26T19:58:50.005Z,18.23
2022-08-26T20:03:58.364Z,18.15
2022-08-26T20:06:24.959Z,17.90
2022-08-26T20:08:52.114Z,17.76
2022-08-26T20:11:22.666Z,18.29
2022-08-26T20:13:49.250Z,17.93
2022-08-26T20:16:16.844Z,18.43
2022-08-26T20:18:44.527Z,18.24
2022-08-26T20:21:11.583Z,18.02
2022-08-26T20:23:38.419Z,17.95
2022-08-26T20:26:05.435Z,17.87
2022-08-26T20:28:32.855Z,17.75
2022-08-26T20:31:00.162Z,17.95
2022-08-26T20:33:26.673Z,17.87
2022-08-26T20:35:53.363Z,17.95
2022-08-26T20:38:21.610Z,17.85
2022-08-26T20:40:49.043Z,17.55
2022-08-26T20:43:15.507Z,17.71
2022-08-26T20:45:42.066Z,17.26
2022-08-26T20:48:08.652Z,17.53
2022-08-26T20:50:35.425Z,17.81
2022-08-26T20:53:01.961Z,17.39
2022-08-26T20:55:28.512Z,17.32
2022-08-26T20:57:55.043Z,17.56
2022-08-26T21:00:21.668Z,17.70
2022-08-26T21:02:50.438Z,17.60
2022-08-26T21:05:18.478Z,17.53
2022-08-26T21:07:45.561Z,17.45
2022-08-26T21:10:12.891Z,17.45
2022-08-26T21:12:39.373Z,17.62
2022-08-26T21:15:06.631Z,17.45
2022-08-26T21:17:33.869Z,17.31
2022-08-26T21:20:00.363Z,17.22
2022-08-26T21:22:26.875Z,16.84
2022-08-26T21:24:53.893Z,16.74
2022-08-26T21:27:23.169Z,16.89
2022-08-26T21:29:53.025Z,17.35
2022-08-26T21:32:19.509Z,17.04
2022-08-26T21:34:45.963Z,16.95
2022-08-26T21:37:15.270Z,17.20
2022-08-26T21:39:43.553Z,16.76
2022-08-26T21:42:10.043Z,17.14
2022-08-26T21:44:36.530Z,17.03
2022-08-26T21:47:03.075Z,17.14
2022-08-26T21:49:29.567Z,16.96
2022-08-26T21:51:56.027Z,16.69
2022-08-26T21:54:22.445Z,16.62
2022-08-26T21:56:49.411Z,16.82
2022-08-26T21:59:18.765Z,16.63
2022-08-26T22:01:45.694Z,16.68
2022-08-26T22:04:12.258Z,16.68
2022-08-26T22:06:48.371Z,16.35
2022-08-26T22:09:20.196Z,16.74
2022-08-26T22:11:48.041Z,16.25
2022-08-26T22:14:16.635Z,16.70
2022-08-26T22:16:44.473Z,16.62
2022-08-26T22:19:17.323Z,15.98
2022-08-26T22:21:44.145Z,16.55
2022-08-26T22:24:10.648Z,16.76
2022-08-26T22:26:37.068Z,16.53
2022-08-26T22:29:04.668Z,16.75
2022-08-26T22:31:37.648Z,16.15
2022-08-26T22:34:12.075Z,15.73
2022-08-26T22:36:43.787Z,16.74
2022-08-26T22:39:11.558Z,16.65
2022-08-26T22:41:38.014Z,16.28
2022-08-26T22:44:04.518Z,16.41
2022-08-26T22:46:31.037Z,16.59
2022-08-26T22:48:57.509Z,16.63
2022-08-26T22:51:24.000Z,16.07
2022-08-26T22:53:50.584Z,16.50
2022-08-26T22:56:17.972Z,16.29
2022-08-26T22:58:44.768Z,16.45
2022-08-26T23:01:11.416Z,16.46
2022-08-26T23:03:37.982Z,16.42
2022-08-26T23:06:08.874Z,16.32
2022-08-26T23:08:35.502Z,16.27
2022-08-26T23:11:02.313Z,16.56
2022-08-26T23:13:28.797Z,16.02
2022-08-26T23:16:04.062Z,16.52
2022-08-26T23:18:30.610Z,16.05
2022-08-26T23:20:57.184Z,16.43
2022-08-26T23:23:24.567Z,16.39
2022-08-26T23:25:51.283Z,16.13
2022-08-26T23:28:17.917Z,15.89
2022-08-26T23:30:44.391Z,15.91
2022-08-26T23:33:10.911Z,15.55
2022-08-26T23:35:37.348Z,15.77
2022-08-26T23:38:06.637Z,15.64
2022-08-26T23:40:36.899Z,16.01
2022-08-26T23:43:06.583Z,15.65
2022-08-26T23:45:34.129Z,15.66
2022-08-26T23:48:01.283Z,15.85
2022-08-26T23:50:30.199Z,15.54
2022-08-26T23:52:56.702Z,16.01
2022-08-26T23:55:23.258Z,15.51
2022-08-26T23:57:50.056Z,15.88
